createdAt,value
2017-03-03T00:00:31.329Z,0
2017-03-03T00:01:42.827Z,0
2017-03-03T00:02:54.580Z,0
2017-03-03T00:04:06.089Z,0
2017-03-03T00:05:17.578Z,0
2017-03-03T00:06:29.094Z,0
2017-03-03T00:07:40.599Z,0
2017-03-03T00:08:52.093Z,0
2017-03-03T00:10:03.989Z,0
2017-03-03T00:11:15.517Z,0
2017-03-03T00:12:27.021Z,0
2017-03-03T00:13:38.572Z,0
2017-03-03T00:14:50.047Z,0
2017-03-03T00:16:01.746Z,0
2017-03-03T00:17:13.234Z,0
2017-03-03T00:18:24.748Z,0
2017-03-03T00:19:36.489Z,0
2017-03-03T00:20:48.183Z,0
2017-03-03T00:21:59.698Z,0
2017-03-03T00:23:11.188Z,0
2017-03-03T00:24:22.743Z,0
2017-03-03T00:25:34.430Z,0
2017-03-03T00:26:45.940Z,0
2017-03-03T00:27:57.443Z,0
2017-03-03T00:29:08.940Z,0
2017-03-03T00:30:20.426Z,0
2017-03-03T00:31:31.911Z,0
2017-03-03T00:32:43.399Z,0
2017-03-03T00:33:54.895Z,0
2017-03-03T00:35:06.601Z,0
2017-03-03T00:36:18.161Z,0
2017-03-03T00:37:29.661Z,0
2017-03-03T00:38:41.360Z,0
2017-03-03T00:39:52.881Z,0
2017-03-03T00:41:04.650Z,0
2017-03-03T00:42:16.379Z,0
2017-03-03T00:43:27.877Z,0
2017-03-03T00:44:39.380Z,0
2017-03-03T00:45:50.888Z,0
2017-03-03T00:47:02.371Z,0
2017-03-03T00:48:13.851Z,0
2017-03-03T00:49:25.356Z,0
2017-03-03T00:50:36.869Z,0
2017-03-03T00:51:48.398Z,0
2017-03-03T00:52:59.919Z,0
2017-03-03T00:54:11.629Z,0
2017-03-03T00:55:23.108Z,0
2017-03-03T00:56:34.626Z,0
2017-03-03T00:57:46.170Z,0
2017-03-03T00:58:57.667Z,0
2017-03-03T01:00:09.545Z,0
2017-03-03T01:01:21.046Z,0
2017-03-03T01:02:32.606Z,0
2017-03-03T01:03:44.100Z,0
2017-03-03T01:04:55.606Z,0
2017-03-03T01:06:07.121Z,0
2017-03-03T01:07:18.603Z,0
2017-03-03T01:08:30.102Z,0
2017-03-03T01:09:41.639Z,0
2017-03-03T01:10:53.136Z,0
2017-03-03T01:12:04.621Z,0
2017-03-03T01:13:16.166Z,0
2017-03-03T01:14:27.659Z,0
2017-03-03T01:15:39.168Z,0
2017-03-03T01:16:50.678Z,0
2017-03-03T01:18:02.169Z,0
2017-03-03T01:19:13.862Z,0
2017-03-03T01:20:25.349Z,0
2017-03-03T01:21:36.866Z,0
2017-03-03T01:22:48.354Z,0
2017-03-03T01:23:59.904Z,0
2017-03-03T01:25:11.624Z,0
2017-03-03T01:26:23.129Z,0
2017-03-03T01:27:34.625Z,0
2017-03-03T01:28:46.156Z,0
2017-03-03T01:29:57.651Z,0
2017-03-03T01:31:09.352Z,0
2017-03-03T01:32:21.252Z,0
2017-03-03T01:33:32.731Z,0
2017-03-03T01:34:44.583Z,0
2017-03-03T01:35:56.111Z,0
2017-03-03T01:37:07.590Z,0
2017-03-03T01:38:19.079Z,0
2017-03-03T01:39:30.583Z,0
2017-03-03T01:40:42.440Z,0
2017-03-03T01:41:53.959Z,0
2017-03-03T01:43:05.435Z,0
2017-03-03T01:44:16.928Z,0
2017-03-03T01:45:28.770Z,0
2017-03-03T01:46:40.291Z,0
2017-03-03T01:47:51.988Z,0
2017-03-03T01:49:03.677Z,0
2017-03-03T01:50:15.376Z,0
2017-03-03T01:51:27.125Z,0
2017-03-03T01:52:38.830Z,0
2017-03-03T01:53:50.528Z,0
2017-03-03T01:55:02.055Z,0
2017-03-03T01:56:13.559Z,0
2017-03-03T01:57:25.109Z,0
2017-03-03T01:58:36.608Z,0
2017-03-03T01:59:48.115Z,0
2017-03-03T02:00:59.612Z,0
2017-03-03T02:02:11.120Z,0
2017-03-03T02:03:22.675Z,0
2017-03-03T02:04:34.168Z,0
2017-03-03T02:05:45.913Z,0
2017-03-03T02:06:57.417Z,0
2017-03-03T02:08:09.128Z,0
2017-03-03T02:09:20.873Z,0
2017-03-03T02:10:32.394Z,0
2017-03-03T02:11:43.873Z,0
2017-03-03T02:12:55.384Z,0
2017-03-03T02:14:06.872Z,0
2017-03-03T02:15:18.393Z,0
2017-03-03T02:16:29.891Z,0
2017-03-03T02:17:41.603Z,0
2017-03-03T02:18:53.122Z,0
2017-03-03T02:20:04.628Z,0
2017-03-03T02:21:16.190Z,0
2017-03-03T02:22:27.709Z,0
2017-03-03T02:23:39.205Z,0
2017-03-03T02:24:50.713Z,0
2017-03-03T02:26:02.225Z,0
2017-03-03T02:27:13.762Z,0
2017-03-03T02:28:25.258Z,0
2017-03-03T02:29:36.755Z,0
2017-03-03T02:30:48.269Z,0
2017-03-03T02:31:59.784Z,0
2017-03-03T02:33:11.333Z,0
2017-03-03T02:34:22.829Z,0
2017-03-03T02:35:34.328Z,0
2017-03-03T02:36:45.864Z,0
2017-03-03T02:37:57.545Z,0
2017-03-03T02:39:09.089Z,0
2017-03-03T02:40:20.597Z,0
2017-03-03T02:41:32.081Z,0
2017-03-03T02:42:43.805Z,0
2017-03-03T02:43:55.289Z,0
2017-03-03T02:45:06.846Z,0
2017-03-03T02:46:18.332Z,0
2017-03-03T02:47:30.062Z,0
2017-03-03T02:48:41.574Z,0
2017-03-03T02:49:53.057Z,0
2017-03-03T02:51:04.615Z,0
2017-03-03T02:52:16.099Z,0
2017-03-03T02:53:27.603Z,0
2017-03-03T02:54:39.083Z,0
2017-03-03T02:55:50.792Z,0
2017-03-03T02:57:02.359Z,0
2017-03-03T02:58:14.066Z,0
2017-03-03T02:59:25.543Z,0
2017-03-03T03:00:37.048Z,0
2017-03-03T03:01:48.544Z,0
2017-03-03T03:03:00.069Z,0
2017-03-03T03:04:11.568Z,0
2017-03-03T03:05:23.087Z,0
2017-03-03T03:06:34.787Z,0
2017-03-03T03:07:46.284Z,0
2017-03-03T03:08:57.813Z,0
2017-03-03T03:10:09.327Z,0
2017-03-03T03:11:20.817Z,0
2017-03-03T03:12:32.323Z,0
2017-03-03T03:13:43.835Z,0
2017-03-03T03:14:55.378Z,0
2017-03-03T03:16:06.886Z,0
2017-03-03T03:17:18.390Z,0
2017-03-03T03:18:29.897Z,0
2017-03-03T03:19:41.392Z,0
2017-03-03T03:20:53.144Z,0
2017-03-03T03:22:04.638Z,0
2017-03-03T03:23:16.145Z,0
2017-03-03T03:24:27.867Z,0
2017-03-03T03:25:39.363Z,0
2017-03-03T03:26:51.323Z,0
2017-03-03T03:28:02.812Z,0
2017-03-03T03:29:14.312Z,0
2017-03-03T03:30:25.816Z,0
2017-03-03T03:31:37.707Z,0
2017-03-03T03:32:49.249Z,0
2017-03-03T03:34:00.773Z,0
2017-03-03T03:35:12.289Z,0
2017-03-03T03:36:23.780Z,0
2017-03-03T03:37:35.296Z,0
2017-03-03T03:38:46.848Z,0
2017-03-03T03:39:58.742Z,0
2017-03-03T03:41:10.241Z,0
2017-03-03T03:42:21.737Z,0
2017-03-03T03:43:33.245Z,0
2017-03-03T03:44:44.790Z,0
2017-03-03T03:45:56.468Z,0
2017-03-03T03:47:07.983Z,0
2017-03-03T03:48:19.481Z,0
2017-03-03T03:49:30.988Z,0
2017-03-03T03:50:42.521Z,0
2017-03-03T03:51:54.232Z,0
2017-03-03T03:53:05.716Z,0
2017-03-03T03:54:17.242Z,0
2017-03-03T03:55:28.967Z,0
2017-03-03T03:56:40.529Z,0
2017-03-03T03:57:52.044Z,0
2017-03-03T03:59:03.746Z,0
2017-03-03T04:00:15.254Z,0
2017-03-03T04:01:26.743Z,0
2017-03-03T04:02:38.299Z,0
2017-03-03T04:03:49.781Z,0
2017-03-03T04:05:01.290Z,0
2017-03-03T04:06:12.805Z,0
2017-03-03T04:07:24.504Z,0
2017-03-03T04:08:36.055Z,0
2017-03-03T04:09:47.553Z,0
2017-03-03T04:10:59.042Z,0
2017-03-03T04:12:10.742Z,0
2017-03-03T04:13:22.430Z,0
2017-03-03T04:14:34.389Z,0
2017-03-03T04:15:45.858Z,0
2017-03-03T04:16:57.359Z,0
2017-03-03T04:18:09.041Z,0
2017-03-03T04:19:20.563Z,0
2017-03-03T04:20:32.125Z,0
2017-03-03T04:21:43.616Z,0
2017-03-03T04:22:55.088Z,0
2017-03-03T04:24:06.617Z,0
2017-03-03T04:25:18.307Z,0
2017-03-03T04:26:29.872Z,0
2017-03-03T04:27:41.380Z,0
2017-03-03T04:28:52.869Z,0
2017-03-03T04:30:04.591Z,0
2017-03-03T04:31:16.108Z,0
2017-03-03T04:32:27.655Z,0
2017-03-03T04:33:39.174Z,0
2017-03-03T04:34:50.668Z,0
2017-03-03T04:36:02.371Z,0
2017-03-03T04:37:13.881Z,0
2017-03-03T04:38:25.420Z,0
2017-03-03T04:39:36.925Z,0
2017-03-03T04:40:48.419Z,0
2017-03-03T04:42:00.120Z,0
2017-03-03T04:43:11.621Z,0
2017-03-03T04:44:23.169Z,0
2017-03-03T04:45:34.660Z,0
2017-03-03T04:46:46.192Z,0
2017-03-03T04:47:57.701Z,0
2017-03-03T04:49:09.200Z,0
2017-03-03T04:50:20.727Z,0
2017-03-03T04:51:32.239Z,0
2017-03-03T04:52:43.710Z,0
2017-03-03T04:53:55.236Z,0
2017-03-03T04:55:06.733Z,0
2017-03-03T04:56:18.482Z,0
2017-03-03T04:57:30.398Z,0
2017-03-03T04:58:42.081Z,0
2017-03-03T04:59:53.572Z,0
2017-03-03T05:01:05.058Z,0
2017-03-03T05:02:16.598Z,0
2017-03-03T05:03:28.089Z,0
2017-03-03T05:04:39.576Z,0
2017-03-03T05:05:51.266Z,0
2017-03-03T05:07:02.742Z,0
2017-03-03T05:08:14.507Z,0
2017-03-03T05:09:26.018Z,0
2017-03-03T05:10:37.508Z,0
2017-03-03T05:11:49.023Z,0
2017-03-03T05:13:00.560Z,0
2017-03-03T05:14:12.102Z,0
2017-03-03T05:15:23.610Z,0
2017-03-03T05:16:35.100Z,0
2017-03-03T05:17:46.603Z,0
2017-03-03T05:18:58.134Z,0
2017-03-03T05:20:09.677Z,0
2017-03-03T05:21:21.172Z,0
2017-03-03T05:22:32.656Z,0
2017-03-03T05:23:44.178Z,0
2017-03-03T05:24:55.712Z,0
2017-03-03T05:26:07.458Z,0
2017-03-03T05:27:18.954Z,0
2017-03-03T05:28:30.657Z,0
2017-03-03T05:29:42.159Z,0
2017-03-03T05:30:53.849Z,0
2017-03-03T05:32:05.418Z,0
2017-03-03T05:33:16.906Z,0
2017-03-03T05:34:28.411Z,0
2017-03-03T05:35:39.918Z,0
2017-03-03T05:36:51.618Z,0
2017-03-03T05:38:03.175Z,0
2017-03-03T05:39:14.662Z,0
2017-03-03T05:40:26.155Z,0
2017-03-03T05:41:37.868Z,0
2017-03-03T05:42:49.380Z,0
2017-03-03T05:44:00.950Z,0
2017-03-03T05:45:12.453Z,0
2017-03-03T05:46:23.949Z,0
2017-03-03T05:47:35.670Z,0
2017-03-03T05:48:47.193Z,0
2017-03-03T05:49:58.724Z,0
2017-03-03T05:51:10.217Z,0
2017-03-03T05:52:21.700Z,0
2017-03-03T05:53:33.202Z,0
2017-03-03T05:54:44.708Z,0
2017-03-03T05:55:56.240Z,0
2017-03-03T05:57:07.744Z,0
2017-03-03T05:58:19.249Z,5
2017-03-03T05:59:30.736Z,5
2017-03-03T06:00:42.229Z,5
2017-03-03T06:01:53.801Z,5
2017-03-03T06:03:05.699Z,5
2017-03-03T06:04:17.179Z,5
2017-03-03T06:05:28.678Z,5
2017-03-03T06:06:40.176Z,5
2017-03-03T06:07:51.917Z,5
2017-03-03T06:09:03.390Z,5
2017-03-03T06:10:14.870Z,10
2017-03-03T06:11:26.386Z,10
2017-03-03T06:12:37.926Z,10
2017-03-03T06:13:49.500Z,10
2017-03-03T06:15:01.010Z,15
2017-03-03T06:16:12.525Z,15
2017-03-03T06:17:24.038Z,15
2017-03-03T06:18:35.538Z,20
2017-03-03T06:19:47.094Z,20
2017-03-03T06:20:58.582Z,25
2017-03-03T06:22:10.088Z,25
2017-03-03T06:23:21.797Z,30
2017-03-03T06:24:33.292Z,30
2017-03-03T06:25:44.836Z,35
2017-03-03T06:26:56.345Z,35
2017-03-03T06:28:07.843Z,40
2017-03-03T06:29:19.361Z,40
2017-03-03T06:30:30.842Z,45
2017-03-03T06:31:42.376Z,50
2017-03-03T06:32:53.886Z,50
2017-03-03T06:34:05.359Z,55
2017-03-03T06:35:16.852Z,60
2017-03-03T06:36:28.516Z,65
2017-03-03T06:37:40.072Z,75
2017-03-03T06:38:51.587Z,75
2017-03-03T06:40:03.088Z,90
2017-03-03T06:41:14.575Z,100
2017-03-03T06:42:26.077Z,105
2017-03-03T06:43:38.024Z,110
2017-03-03T06:44:49.514Z,115
2017-03-03T06:46:01.024Z,125
2017-03-03T06:47:12.525Z,135
2017-03-03T06:48:24.245Z,145
2017-03-03T06:49:35.787Z,175
2017-03-03T06:50:47.307Z,170
2017-03-03T06:51:58.816Z,140
2017-03-03T06:53:10.358Z,190
2017-03-03T06:54:21.855Z,210
2017-03-03T06:55:33.424Z,225
2017-03-03T06:56:44.915Z,235
2017-03-03T06:57:56.433Z,300
2017-03-03T06:59:08.135Z,450
2017-03-03T07:00:20.051Z,460
2017-03-03T07:01:31.602Z,370
2017-03-03T07:02:43.108Z,360
2017-03-03T07:03:54.587Z,335
2017-03-03T07:05:06.056Z,305
2017-03-03T07:06:17.529Z,340
2017-03-03T07:07:29.067Z,500
2017-03-03T07:08:40.560Z,680
2017-03-03T07:09:52.052Z,745
2017-03-03T07:11:03.566Z,790
2017-03-03T07:12:15.259Z,920
2017-03-03T07:13:26.820Z,1000
2017-03-03T07:14:38.335Z,745
2017-03-03T07:15:49.828Z,960
2017-03-03T07:17:01.527Z,1425
2017-03-03T07:18:13.030Z,1090
2017-03-03T07:19:24.597Z,1075
2017-03-03T07:20:36.115Z,795
2017-03-03T07:21:47.793Z,570
2017-03-03T07:22:59.315Z,875
2017-03-03T07:24:10.821Z,935
2017-03-03T07:25:22.299Z,1090
2017-03-03T07:26:34.235Z,1000
2017-03-03T07:27:45.719Z,770
2017-03-03T07:28:57.235Z,620
2017-03-03T07:30:08.793Z,695
2017-03-03T07:31:20.289Z,605
2017-03-03T07:32:31.796Z,1005
2017-03-03T07:33:43.308Z,1190
2017-03-03T07:34:54.819Z,620
2017-03-03T07:36:06.561Z,520
2017-03-03T07:37:18.280Z,800
2017-03-03T07:38:29.795Z,825
2017-03-03T07:39:41.506Z,645
2017-03-03T07:40:52.993Z,760
2017-03-03T07:42:04.553Z,830
2017-03-03T07:43:16.037Z,985
2017-03-03T07:44:27.547Z,815
2017-03-03T07:45:39.064Z,850
2017-03-03T07:46:50.570Z,895
2017-03-03T07:48:02.310Z,1055
2017-03-03T07:49:14.013Z,1000
2017-03-03T07:50:25.499Z,860
2017-03-03T07:51:36.994Z,855
2017-03-03T07:52:48.504Z,1035
2017-03-03T07:54:00.251Z,1015
2017-03-03T07:55:11.722Z,1255
2017-03-03T07:56:23.230Z,1480
2017-03-03T07:57:34.730Z,1395
2017-03-03T07:58:46.450Z,1130
2017-03-03T07:59:58.003Z,1695
2017-03-03T08:01:09.500Z,1820
2017-03-03T08:02:21.013Z,1440
2017-03-03T08:03:32.532Z,1000
2017-03-03T08:04:44.029Z,835
2017-03-03T08:05:55.567Z,875
2017-03-03T08:07:07.099Z,895
2017-03-03T08:08:18.794Z,975
2017-03-03T08:09:30.298Z,1285
2017-03-03T08:10:41.802Z,1510
2017-03-03T08:11:53.375Z,1585
2017-03-03T08:13:04.884Z,1690
2017-03-03T08:14:16.574Z,1550
2017-03-03T08:15:28.095Z,1120
2017-03-03T08:16:39.602Z,1125
2017-03-03T08:17:51.174Z,1200
2017-03-03T08:19:02.696Z,1290
2017-03-03T08:20:14.193Z,1425
2017-03-03T08:21:25.927Z,1625
2017-03-03T08:22:37.450Z,1680
2017-03-03T08:23:49.017Z,1710
2017-03-03T08:25:00.527Z,1680
2017-03-03T08:26:12.020Z,1455
2017-03-03T08:27:23.737Z,1805
2017-03-03T08:28:35.243Z,1945
2017-03-03T08:29:46.808Z,2030
2017-03-03T08:30:58.310Z,1820
2017-03-03T08:32:09.826Z,2170
2017-03-03T08:33:21.550Z,2235
2017-03-03T08:34:33.247Z,2045
2017-03-03T08:35:44.805Z,2010
2017-03-03T08:36:56.340Z,2155
2017-03-03T08:38:08.057Z,2265
2017-03-03T08:39:19.584Z,2255
2017-03-03T08:40:31.129Z,2345
2017-03-03T08:41:42.709Z,2465
2017-03-03T08:42:54.411Z,2665
2017-03-03T08:44:05.957Z,2500
2017-03-03T08:45:17.470Z,2410
2017-03-03T08:46:29.009Z,2135
2017-03-03T08:47:40.581Z,2030
2017-03-03T08:48:52.096Z,2310
2017-03-03T08:50:03.607Z,1810
2017-03-03T08:51:15.153Z,1920
2017-03-03T08:52:26.647Z,1880
2017-03-03T08:53:38.198Z,2050
2017-03-03T08:54:49.725Z,1750
2017-03-03T08:56:01.255Z,1605
2017-03-03T08:57:12.994Z,1515
2017-03-03T08:58:24.515Z,1455
2017-03-03T08:59:36.092Z,1575
2017-03-03T09:00:47.609Z,1905
2017-03-03T09:01:59.153Z,1915
2017-03-03T09:03:10.690Z,1820
2017-03-03T09:04:22.616Z,1800
2017-03-03T09:05:34.184Z,1895
2017-03-03T09:06:45.698Z,1720
2017-03-03T09:07:57.210Z,1570
2017-03-03T09:09:08.718Z,1490
2017-03-03T09:10:20.228Z,1390
2017-03-03T09:11:31.790Z,1725
2017-03-03T09:12:43.309Z,1925
2017-03-03T09:13:54.836Z,1875
2017-03-03T09:15:06.350Z,1650
2017-03-03T09:16:17.878Z,1350
2017-03-03T09:17:29.442Z,1535
2017-03-03T09:18:40.969Z,1725
2017-03-03T09:19:52.475Z,1785
2017-03-03T09:21:03.997Z,1760
2017-03-03T09:22:15.507Z,1760
2017-03-03T09:23:27.206Z,1640
2017-03-03T09:24:38.728Z,1550
2017-03-03T09:25:50.239Z,1440
2017-03-03T09:27:01.767Z,1385
2017-03-03T09:28:13.276Z,1300
2017-03-03T09:29:24.831Z,1215
2017-03-03T09:30:36.333Z,1390
2017-03-03T09:31:47.820Z,1480
2017-03-03T09:32:59.556Z,995
2017-03-03T09:34:11.066Z,1325
2017-03-03T09:35:22.632Z,1640
2017-03-03T09:36:34.140Z,1505
2017-03-03T09:37:45.623Z,1470
2017-03-03T09:38:57.116Z,1375
2017-03-03T09:40:08.651Z,1425
2017-03-03T09:41:20.203Z,1475
2017-03-03T09:42:31.712Z,1370
2017-03-03T09:43:43.207Z,1245
2017-03-03T09:44:54.730Z,1205
2017-03-03T09:46:06.265Z,1045
2017-03-03T09:47:17.866Z,985
2017-03-03T09:48:29.368Z,985
2017-03-03T09:49:40.912Z,955
2017-03-03T09:50:52.445Z,935
2017-03-03T09:52:03.973Z,875
2017-03-03T09:53:15.733Z,830
2017-03-03T09:54:27.305Z,735
2017-03-03T09:55:38.812Z,655
2017-03-03T09:56:50.330Z,675
2017-03-03T09:58:01.842Z,635
2017-03-03T09:59:13.403Z,610
2017-03-03T10:00:24.884Z,585
2017-03-03T10:01:36.420Z,575
2017-03-03T10:02:47.954Z,550
2017-03-03T10:03:59.639Z,520
2017-03-03T10:05:11.223Z,525
2017-03-03T10:06:22.940Z,545
2017-03-03T10:07:34.673Z,545
2017-03-03T10:08:46.173Z,550
2017-03-03T10:09:57.885Z,525
2017-03-03T10:11:09.474Z,545
2017-03-03T10:12:20.979Z,580
2017-03-03T10:13:32.520Z,600
2017-03-03T10:14:44.044Z,655
2017-03-03T10:15:55.558Z,675
2017-03-03T10:17:07.294Z,690
2017-03-03T10:18:18.808Z,705
2017-03-03T10:19:30.340Z,725
2017-03-03T10:20:41.843Z,805
2017-03-03T10:21:53.387Z,875
2017-03-03T10:23:04.950Z,890
2017-03-03T10:24:16.438Z,935
2017-03-03T10:25:27.971Z,945
2017-03-03T10:26:39.467Z,950
2017-03-03T10:27:50.975Z,875
2017-03-03T10:29:02.539Z,875
2017-03-03T10:30:14.028Z,895
2017-03-03T10:31:25.557Z,925
2017-03-03T10:32:37.265Z,955
2017-03-03T10:33:48.769Z,915
2017-03-03T10:35:00.324Z,950
2017-03-03T10:36:11.854Z,945
2017-03-03T10:37:23.337Z,1060
2017-03-03T10:38:34.835Z,1210
2017-03-03T10:39:46.338Z,1175
2017-03-03T10:40:57.899Z,1170
2017-03-03T10:42:09.419Z,1320
2017-03-03T10:43:20.937Z,1330
2017-03-03T10:44:32.445Z,1455
2017-03-03T10:45:43.946Z,1545
2017-03-03T10:46:55.508Z,1570
2017-03-03T10:48:07.012Z,1540
2017-03-03T10:49:18.543Z,1520
2017-03-03T10:50:30.043Z,1430
2017-03-03T10:51:41.559Z,1560
2017-03-03T10:52:53.117Z,1585
2017-03-03T10:54:04.641Z,1405
2017-03-03T10:55:16.174Z,1505
2017-03-03T10:56:27.693Z,1530
2017-03-03T10:57:39.451Z,1450
2017-03-03T10:58:51.022Z,1680
2017-03-03T11:00:02.557Z,1655
2017-03-03T11:01:14.069Z,1635
2017-03-03T11:02:25.580Z,1640
2017-03-03T11:03:37.119Z,1565
2017-03-03T11:04:48.630Z,1445
2017-03-03T11:06:00.175Z,1550
2017-03-03T11:07:11.698Z,1445
2017-03-03T11:08:23.186Z,1420
2017-03-03T11:09:34.938Z,1525
2017-03-03T11:10:46.449Z,1600
2017-03-03T11:11:57.962Z,1610
2017-03-03T11:13:09.678Z,1540
2017-03-03T11:14:21.198Z,1545
2017-03-03T11:15:33.027Z,1430
2017-03-03T11:16:44.539Z,1280
2017-03-03T11:17:56.259Z,1205
2017-03-03T11:19:07.787Z,1120
2017-03-03T11:20:19.290Z,895
2017-03-03T11:21:30.871Z,770
2017-03-03T11:22:42.385Z,745
2017-03-03T11:23:53.905Z,800
2017-03-03T11:25:05.431Z,860
2017-03-03T11:26:16.936Z,840
2017-03-03T11:27:28.488Z,785
2017-03-03T11:28:39.993Z,690
2017-03-03T11:29:51.547Z,600
2017-03-03T11:31:03.052Z,565
2017-03-03T11:32:14.585Z,555
2017-03-03T11:33:26.186Z,530
2017-03-03T11:34:37.719Z,520
2017-03-03T11:35:49.239Z,500
2017-03-03T11:37:00.731Z,490
2017-03-03T11:38:12.261Z,465
2017-03-03T11:39:23.827Z,440
2017-03-03T11:40:35.342Z,430
2017-03-03T11:41:46.877Z,420
2017-03-03T11:42:58.378Z,410
2017-03-03T11:44:10.106Z,395
2017-03-03T11:45:21.896Z,380
2017-03-03T11:46:33.395Z,375
2017-03-03T11:47:45.119Z,365
2017-03-03T11:48:56.609Z,355
2017-03-03T11:50:08.319Z,365
2017-03-03T11:51:19.883Z,370
2017-03-03T11:52:31.406Z,370
2017-03-03T11:53:42.886Z,365
2017-03-03T11:54:54.397Z,360
2017-03-03T11:56:05.925Z,360
2017-03-03T11:57:17.668Z,350
2017-03-03T11:58:29.373Z,340
2017-03-03T11:59:40.919Z,335
2017-03-03T12:00:52.642Z,330
2017-03-03T12:02:04.147Z,330
2017-03-03T12:03:15.950Z,325
2017-03-03T12:04:27.461Z,330
2017-03-03T12:05:38.969Z,345
2017-03-03T12:06:50.496Z,350
2017-03-03T12:08:02.024Z,375
2017-03-03T12:09:13.598Z,400
2017-03-03T12:10:25.117Z,435
2017-03-03T12:11:36.637Z,475
2017-03-03T12:12:48.144Z,540
2017-03-03T12:13:59.665Z,645
2017-03-03T12:15:11.443Z,775
2017-03-03T12:16:23.152Z,930
2017-03-03T12:17:34.663Z,990
2017-03-03T12:18:46.169Z,1080
2017-03-03T12:19:57.680Z,1090
2017-03-03T12:21:09.446Z,1140
2017-03-03T12:22:21.150Z,1070
2017-03-03T12:23:32.658Z,1215
2017-03-03T12:24:44.170Z,1200
2017-03-03T12:25:55.666Z,860
2017-03-03T12:27:07.228Z,825
2017-03-03T12:28:18.739Z,815
2017-03-03T12:29:30.261Z,710
2017-03-03T12:30:41.771Z,905
2017-03-03T12:31:53.282Z,650
2017-03-03T12:33:05.103Z,665
2017-03-03T12:34:16.624Z,705
2017-03-03T12:35:28.121Z,755
2017-03-03T12:36:39.612Z,625
2017-03-03T12:37:51.127Z,675
2017-03-03T12:39:02.684Z,775
2017-03-03T12:40:14.379Z,550
2017-03-03T12:41:25.890Z,495
2017-03-03T12:42:37.403Z,450
2017-03-03T12:43:48.907Z,405
2017-03-03T12:45:00.472Z,370
2017-03-03T12:46:12.191Z,350
2017-03-03T12:47:23.690Z,350
2017-03-03T12:48:35.207Z,360
2017-03-03T12:49:46.942Z,380
2017-03-03T12:50:58.503Z,410
2017-03-03T12:52:10.016Z,430
2017-03-03T12:53:21.743Z,440
2017-03-03T12:54:33.268Z,420
2017-03-03T12:55:44.979Z,405
2017-03-03T12:56:56.538Z,380
2017-03-03T12:58:08.067Z,350
2017-03-03T12:59:19.823Z,315
2017-03-03T13:00:31.362Z,290
2017-03-03T13:01:42.888Z,270
2017-03-03T13:02:54.449Z,260
2017-03-03T13:04:05.988Z,245
2017-03-03T13:05:17.496Z,235
2017-03-03T13:06:29.217Z,240
2017-03-03T13:07:40.931Z,245
2017-03-03T13:08:52.490Z,250
2017-03-03T13:10:03.998Z,250
2017-03-03T13:11:15.512Z,260
2017-03-03T13:12:27.046Z,255
2017-03-03T13:13:38.565Z,250
2017-03-03T13:14:50.134Z,230
2017-03-03T13:16:01.649Z,220
2017-03-03T13:17:13.163Z,225
2017-03-03T13:18:24.678Z,230
2017-03-03T13:19:36.197Z,240
2017-03-03T13:20:47.777Z,250
2017-03-03T13:21:59.279Z,255
2017-03-03T13:23:10.803Z,275
2017-03-03T13:24:22.314Z,290
2017-03-03T13:25:34.013Z,305
2017-03-03T13:26:45.596Z,325
2017-03-03T13:27:57.114Z,330
2017-03-03T13:29:08.842Z,330
2017-03-03T13:30:20.363Z,310
2017-03-03T13:31:31.883Z,290
2017-03-03T13:32:43.441Z,270
2017-03-03T13:33:54.955Z,250
2017-03-03T13:35:06.693Z,235
2017-03-03T13:36:18.194Z,225
2017-03-03T13:37:29.690Z,215
2017-03-03T13:38:41.228Z,210
2017-03-03T13:39:52.918Z,210
2017-03-03T13:41:04.680Z,210
2017-03-03T13:42:16.176Z,210
2017-03-03T13:43:27.677Z,200
2017-03-03T13:44:39.247Z,195
2017-03-03T13:45:50.757Z,200
2017-03-03T13:47:02.281Z,200
2017-03-03T13:48:13.821Z,200
2017-03-03T13:49:25.320Z,200
2017-03-03T13:50:36.867Z,200
2017-03-03T13:51:48.380Z,205
2017-03-03T13:52:59.907Z,200
2017-03-03T13:54:11.431Z,205
2017-03-03T13:55:23.138Z,205
2017-03-03T13:56:34.691Z,205
2017-03-03T13:57:46.205Z,205
2017-03-03T13:58:57.699Z,210
2017-03-03T14:00:09.422Z,210
2017-03-03T14:01:21.346Z,210
2017-03-03T14:02:32.913Z,210
2017-03-03T14:03:44.423Z,215
2017-03-03T14:04:56.313Z,215
2017-03-03T14:06:07.999Z,220
2017-03-03T14:07:19.689Z,215
2017-03-03T14:08:31.246Z,215
2017-03-03T14:09:42.767Z,215
2017-03-03T14:10:54.291Z,215
2017-03-03T14:12:05.808Z,215
2017-03-03T14:13:17.295Z,210
2017-03-03T14:14:28.888Z,205
2017-03-03T14:15:40.397Z,205
2017-03-03T14:16:51.951Z,205
2017-03-03T14:18:03.665Z,205
2017-03-03T14:19:15.374Z,200
2017-03-03T14:20:26.919Z,205
2017-03-03T14:21:38.629Z,195
2017-03-03T14:22:50.124Z,195
2017-03-03T14:24:01.859Z,190
2017-03-03T14:25:13.373Z,190
2017-03-03T14:26:24.944Z,180
2017-03-03T14:27:36.442Z,175
2017-03-03T14:28:47.968Z,160
2017-03-03T14:29:59.460Z,145
2017-03-03T14:31:10.976Z,130
2017-03-03T14:32:22.533Z,130
2017-03-03T14:33:34.073Z,125
2017-03-03T14:34:45.586Z,130
2017-03-03T14:35:57.092Z,130
2017-03-03T14:37:08.609Z,135
2017-03-03T14:38:20.197Z,140
2017-03-03T14:39:31.704Z,145
2017-03-03T14:40:43.226Z,150
2017-03-03T14:41:54.740Z,150
2017-03-03T14:43:06.453Z,160
2017-03-03T14:44:18.213Z,165
2017-03-03T14:45:29.734Z,170
2017-03-03T14:46:41.223Z,170
2017-03-03T14:47:52.756Z,170
2017-03-03T14:49:04.449Z,175
2017-03-03T14:50:16.003Z,180
2017-03-03T14:51:27.723Z,180
2017-03-03T14:52:39.241Z,180
2017-03-03T14:53:50.774Z,185
2017-03-03T14:55:02.288Z,175
2017-03-03T14:56:13.826Z,175
2017-03-03T14:57:25.333Z,175
2017-03-03T14:58:36.840Z,175
2017-03-03T14:59:48.368Z,170
2017-03-03T15:00:59.863Z,170
2017-03-03T15:02:11.668Z,165
2017-03-03T15:03:23.178Z,155
2017-03-03T15:04:34.695Z,145
2017-03-03T15:05:46.211Z,135
2017-03-03T15:06:57.717Z,120
2017-03-03T15:08:09.281Z,105
2017-03-03T15:09:20.779Z,90
2017-03-03T15:10:32.272Z,85
2017-03-03T15:11:43.823Z,85
2017-03-03T15:12:55.508Z,85
2017-03-03T15:14:07.277Z,85
2017-03-03T15:15:18.794Z,85
2017-03-03T15:16:30.290Z,85
2017-03-03T15:17:41.776Z,80
2017-03-03T15:18:53.275Z,80
2017-03-03T15:20:04.829Z,75
2017-03-03T15:21:16.336Z,80
2017-03-03T15:22:27.839Z,85
2017-03-03T15:23:39.347Z,90
2017-03-03T15:24:50.847Z,90
2017-03-03T15:26:02.421Z,85
2017-03-03T15:27:13.935Z,85
2017-03-03T15:28:25.629Z,90
2017-03-03T15:29:37.134Z,90
2017-03-03T15:30:48.857Z,90
2017-03-03T15:32:00.876Z,90
2017-03-03T15:33:12.370Z,90
2017-03-03T15:34:23.879Z,95
2017-03-03T15:35:35.401Z,95
2017-03-03T15:36:46.906Z,95
2017-03-03T15:37:58.457Z,95
2017-03-03T15:39:09.950Z,95
2017-03-03T15:40:21.670Z,100
2017-03-03T15:41:33.177Z,100
2017-03-03T15:42:44.664Z,100
2017-03-03T15:43:56.467Z,95
2017-03-03T15:45:07.974Z,95
2017-03-03T15:46:20.143Z,90
2017-03-03T15:47:31.182Z,90
2017-03-03T15:48:42.702Z,90
2017-03-03T15:49:54.450Z,90
2017-03-03T15:51:06.169Z,85
2017-03-03T15:52:17.701Z,85
2017-03-03T15:53:29.214Z,85
2017-03-03T15:54:40.728Z,85
2017-03-03T15:55:52.297Z,85
2017-03-03T15:57:04.001Z,85
2017-03-03T15:58:15.509Z,85
2017-03-03T15:59:27.022Z,80
2017-03-03T16:00:38.550Z,80
2017-03-03T16:01:50.361Z,80
2017-03-03T16:03:02.080Z,80
2017-03-03T16:04:13.580Z,75
2017-03-03T16:05:25.074Z,75
2017-03-03T16:06:36.592Z,70
2017-03-03T16:07:48.189Z,70
2017-03-03T16:08:59.710Z,65
2017-03-03T16:10:11.225Z,65
2017-03-03T16:11:22.926Z,65
2017-03-03T16:12:34.628Z,60
2017-03-03T16:13:46.187Z,65
2017-03-03T16:14:57.701Z,60
2017-03-03T16:16:09.202Z,60
2017-03-03T16:17:20.692Z,65
2017-03-03T16:18:32.190Z,55
2017-03-03T16:19:43.720Z,55
2017-03-03T16:20:55.430Z,55
2017-03-03T16:22:06.920Z,50
2017-03-03T16:23:18.416Z,50
2017-03-03T16:24:29.930Z,50
2017-03-03T16:25:41.469Z,45
2017-03-03T16:26:52.967Z,45
2017-03-03T16:28:04.472Z,45
2017-03-03T16:29:15.974Z,45
2017-03-03T16:30:27.493Z,40
2017-03-03T16:31:39.048Z,40
2017-03-03T16:32:50.545Z,35
2017-03-03T16:34:02.052Z,35
2017-03-03T16:35:13.733Z,35
2017-03-03T16:36:25.253Z,35
2017-03-03T16:37:36.811Z,30
2017-03-03T16:38:48.529Z,30
2017-03-03T16:40:00.063Z,30
2017-03-03T16:41:11.568Z,25
2017-03-03T16:42:23.288Z,25
2017-03-03T16:43:35.044Z,25
2017-03-03T16:44:46.555Z,25
2017-03-03T16:45:58.055Z,20
2017-03-03T16:47:09.565Z,20
2017-03-03T16:48:21.089Z,20
2017-03-03T16:49:32.656Z,15